createdAt,value
2018-07-20T00:02:29.119Z,15.10
2018-07-20T00:04:58.585Z,15.00
2018-07-20T00:07:28.020Z,14.80
2018-07-20T00:09:58.655Z,14.90
2018-07-20T00:12:28.046Z,14.70
2018-07-20T00:14:57.462Z,14.70
2018-07-20T00:17:26.862Z,14.70
2018-07-20T00:22:34.737Z,14.40
2018-07-20T00:25:04.168Z,14.40
2018-07-20T00:27:33.594Z,14.50
2018-07-20T00:30:25.942Z,14.60
2018-07-20T00:32:55.238Z,14.50
2018-07-20T00:35:24.634Z,14.40
2018-07-20T00:37:54.030Z,14.40
2018-07-20T00:40:24.602Z,14.20
2018-07-20T00:42:54.162Z,14.30
2018-07-20T00:45:23.477Z,14.30
2018-07-20T00:47:52.831Z,14.10
2018-07-20T00:50:29.554Z,14.20
2018-07-20T00:52:58.954Z,14.00
2018-07-20T00:55:28.416Z,14.00
2018-07-20T00:57:58.258Z,14.10
2018-07-20T01:00:36.910Z,14.00
2018-07-20T01:03:06.409Z,14.10
2018-07-20T01:05:35.886Z,13.90
2018-07-20T01:08:05.135Z,14.00
2018-07-20T01:10:42.609Z,13.80
2018-07-20T01:13:11.954Z,13.80
2018-07-20T01:15:41.465Z,13.90
2018-07-20T01:18:10.898Z,13.80
2018-07-20T01:23:20.761Z,13.70
2018-07-20T01:25:50.199Z,13.80
2018-07-20T01:28:19.558Z,13.80
2018-07-20T01:30:54.555Z,13.70
2018-07-20T01:33:23.991Z,13.70
2018-07-20T01:35:53.459Z,13.40
2018-07-20T01:38:22.778Z,13.60
2018-07-20T01:41:20.784Z,13.50
2018-07-20T01:43:50.121Z,13.60
2018-07-20T01:46:19.798Z,13.50
2018-07-20T01:48:49.180Z,13.30
2018-07-20T01:51:27.813Z,13.40
2018-07-20T01:53:57.274Z,13.40
2018-07-20T01:56:26.714Z,13.20
2018-07-20T01:58:56.106Z,13.30
2018-07-20T02:01:25.554Z,13.30
2018-07-20T02:03:54.937Z,13.40
2018-07-20T02:06:24.417Z,13.40
2018-07-20T02:08:53.986Z,13.30
2018-07-20T02:11:23.370Z,13.40
2018-07-20T02:13:52.822Z,13.30
2018-07-20T02:16:22.226Z,13.20
2018-07-20T02:18:51.797Z,13.20
2018-07-20T02:21:21.242Z,13.30
2018-07-20T02:23:50.630Z,13.20
2018-07-20T02:26:20.046Z,13.20
2018-07-20T02:28:49.397Z,13.00
2018-07-20T02:31:54.691Z,13.00
2018-07-20T02:34:24.081Z,12.90
2018-07-20T02:36:53.490Z,13.00
2018-07-20T02:39:50.342Z,13.10
2018-07-20T02:42:19.746Z,13.10
2018-07-20T02:44:49.166Z,13.00
2018-07-20T02:47:18.513Z,13.00
2018-07-20T02:49:58.806Z,12.90
2018-07-20T02:52:28.189Z,12.80
2018-07-20T02:54:57.514Z,12.70
2018-07-20T02:57:26.873Z,12.70
2018-07-20T03:00:09.309Z,12.70
2018-07-20T03:02:38.710Z,12.70
2018-07-20T03:05:08.138Z,12.60
2018-07-20T03:07:37.479Z,12.70
2018-07-20T03:10:48.198Z,12.70
2018-07-20T03:13:17.695Z,12.60
2018-07-20T03:15:47.061Z,12.60
2018-07-20T03:18:16.565Z,12.60
2018-07-20T03:20:56.250Z,12.60
2018-07-20T03:23:25.706Z,12.60
2018-07-20T03:25:55.027Z,12.50
2018-07-20T03:28:24.457Z,12.50
2018-07-20T03:31:01.032Z,12.60
2018-07-20T03:33:30.389Z,12.60
2018-07-20T03:35:59.929Z,12.60
2018-07-20T03:38:29.337Z,12.60
2018-07-20T03:41:00.781Z,12.50
2018-07-20T03:43:30.155Z,12.60
2018-07-20T03:45:59.517Z,12.60
2018-07-20T03:48:28.873Z,12.60
2018-07-20T03:51:06.712Z,12.60
2018-07-20T03:53:35.885Z,12.50
2018-07-20T03:56:05.095Z,12.50
2018-07-20T04:01:21.913Z,12.50
2018-07-20T04:03:51.021Z,12.60
2018-07-20T04:06:20.309Z,12.60
2018-07-20T04:08:49.657Z,12.60
2018-07-20T04:11:20.059Z,12.60
2018-07-20T04:13:49.439Z,12.60
2018-07-20T04:16:18.792Z,12.50
2018-07-20T04:18:48.166Z,12.50
2018-07-20T04:21:31.882Z,12.60
2018-07-20T04:24:01.331Z,12.70
2018-07-20T04:26:30.637Z,12.80
2018-07-20T04:29:12.386Z,12.70
2018-07-20T04:31:41.849Z,12.60
2018-07-20T04:34:11.278Z,12.70
2018-07-20T04:36:40.671Z,12.60
2018-07-20T04:41:47.633Z,12.70
2018-07-20T04:44:17.101Z,12.80
2018-07-20T04:46:51.958Z,12.90
2018-07-20T04:49:45.955Z,12.90
2018-07-20T04:52:15.542Z,13.20
2018-07-20T04:54:45.006Z,13.40
2018-07-20T04:57:14.301Z,13.40
2018-07-20T04:59:48.117Z,13.50
2018-07-20T05:02:17.618Z,13.60
2018-07-20T05:04:46.945Z,13.60
2018-07-20T05:07:16.326Z,13.60
2018-07-20T05:10:00.042Z,13.60
2018-07-20T05:12:29.586Z,13.70
2018-07-20T05:14:58.955Z,13.70
2018-07-20T05:17:28.319Z,13.90
2018-07-20T05:19:57.693Z,13.90
2018-07-20T05:22:27.121Z,14.10
2018-07-20T05:24:56.506Z,14.20
2018-07-20T05:27:25.881Z,14.30
2018-07-20T05:30:00.519Z,14.50
2018-07-20T05:32:29.993Z,14.60
2018-07-20T05:34:59.386Z,14.70
2018-07-20T05:37:28.802Z,14.80
2018-07-20T05:42:48.811Z,15.20
2018-07-20T05:45:18.247Z,15.40
2018-07-20T05:47:47.715Z,15.40
2018-07-20T05:50:54.845Z,15.60
2018-07-20T05:53:24.231Z,15.70
2018-07-20T05:55:53.690Z,15.90
2018-07-20T05:58:23.109Z,16.20
2018-07-20T06:00:54.557Z,16.20
2018-07-20T06:05:53.066Z,16.70
2018-07-20T06:08:22.485Z,16.90
2018-07-20T06:10:51.909Z,17.10
2018-07-20T06:13:21.275Z,17.40
2018-07-20T06:15:50.691Z,17.60
2018-07-20T06:18:20.130Z,17.80
2018-07-20T06:20:53.572Z,18.00
2018-07-20T06:23:22.954Z,18.20
2018-07-20T06:25:52.360Z,18.40
2018-07-20T06:28:21.699Z,18.60
2018-07-20T06:30:51.142Z,18.80
2018-07-20T06:33:20.550Z,18.90
2018-07-20T06:35:49.974Z,19.00
2018-07-20T06:38:19.405Z,19.30
2018-07-20T06:41:13.146Z,19.50
2018-07-20T06:43:42.555Z,19.80
2018-07-20T06:46:12.027Z,20.10
2018-07-20T06:48:41.506Z,20.40
2018-07-20T06:51:22.957Z,20.50
2018-07-20T06:53:52.421Z,20.70
2018-07-20T06:56:22.287Z,21.00
2018-07-20T06:58:51.669Z,21.10
2018-07-20T07:01:21.165Z,21.30
2018-07-20T07:03:50.591Z,21.40
2018-07-20T07:06:19.966Z,21.70
2018-07-20T07:08:49.386Z,21.90
2018-07-20T07:11:41.669Z,22.20
2018-07-20T07:14:11.109Z,22.50
2018-07-20T07:16:40.533Z,22.70
2018-07-20T07:19:20.965Z,22.90
2018-07-20T07:21:50.497Z,23.10
2018-07-20T07:24:19.966Z,23.30
2018-07-20T07:26:49.519Z,23.20
2018-07-20T07:29:21.067Z,23.20
2018-07-20T07:31:50.464Z,23.70
2018-07-20T07:34:19.798Z,23.80
2018-07-20T07:36:49.213Z,24.00
2018-07-20T07:39:20.678Z,24.30
2018-07-20T07:41:50.090Z,23.90
2018-07-20T07:44:20.014Z,24.50
2018-07-20T07:46:49.431Z,24.80
2018-07-20T07:49:27.091Z,24.50
2018-07-20T07:51:57.375Z,24.80
2018-07-20T07:54:26.833Z,24.60
2018-07-20T07:56:56.252Z,24.80
2018-07-20T07:59:27.723Z,24.70
2018-07-20T08:01:57.102Z,24.50
2018-07-20T08:04:26.494Z,24.40
2018-07-20T08:06:55.914Z,24.30
2018-07-20T08:09:27.293Z,24.20
2018-07-20T08:11:59.669Z,24.30
2018-07-20T08:14:29.533Z,24.40
2018-07-20T08:16:58.985Z,24.50
2018-07-20T08:19:51.791Z,24.50
2018-07-20T08:22:21.209Z,24.50
2018-07-20T08:24:50.671Z,24.70
2018-07-20T08:27:20.411Z,24.80
2018-07-20T08:29:53.337Z,24.80
2018-07-20T08:32:22.694Z,24.80
2018-07-20T08:34:52.140Z,24.70
2018-07-20T08:37:21.558Z,24.50
2018-07-20T08:39:51.961Z,24.60
2018-07-20T08:42:21.325Z,24.90
2018-07-20T08:44:50.718Z,24.90
2018-07-20T08:47:20.119Z,25.20
2018-07-20T08:49:59.777Z,25.40
2018-07-20T08:52:29.290Z,25.80
2018-07-20T09:00:08.242Z,26.10
2018-07-20T09:05:07.158Z,26.20
2018-07-20T09:07:36.661Z,26.10
2018-07-20T09:10:14.565Z,26.00
2018-07-20T09:12:43.974Z,26.00
2018-07-20T09:15:13.391Z,26.20
2018-07-20T09:17:42.842Z,26.40
2018-07-20T09:20:49.665Z,26.50
2018-07-20T09:23:19.116Z,26.50
2018-07-20T09:25:48.467Z,26.40
2018-07-20T09:28:17.894Z,26.40
2018-07-20T09:30:56.150Z,26.20
2018-07-20T09:33:25.603Z,26.10
2018-07-20T09:35:54.974Z,26.30
2018-07-20T09:38:24.441Z,26.00
2018-07-20T09:40:53.876Z,25.80
2018-07-20T09:43:23.431Z,25.60
2018-07-20T09:45:52.976Z,26.00
2018-07-20T09:48:22.369Z,26.20
2018-07-20T09:50:52.813Z,26.20
2018-07-20T09:53:22.190Z,26.10
2018-07-20T09:55:51.618Z,26.10
2018-07-20T09:58:21.127Z,26.00
2018-07-20T10:00:54.723Z,26.40
2018-07-20T10:03:24.218Z,26.70
2018-07-20T10:05:53.662Z,26.70
2018-07-20T10:08:23.218Z,27.00
2018-07-20T10:10:57.248Z,27.00
2018-07-20T10:13:26.614Z,27.20
2018-07-20T10:15:56.054Z,27.40
2018-07-20T10:18:25.442Z,27.40
2018-07-20T10:20:55.851Z,27.00
2018-07-20T10:23:25.281Z,26.70
2018-07-20T10:25:54.728Z,26.80
2018-07-20T10:28:24.105Z,26.70
2018-07-20T10:30:55.578Z,26.70
2018-07-20T10:33:24.921Z,26.70
2018-07-20T10:35:54.294Z,26.90
2018-07-20T10:38:23.646Z,27.30
2018-07-20T10:40:53.065Z,27.50
2018-07-20T10:43:22.552Z,27.90
2018-07-20T10:45:51.936Z,28.10
2018-07-20T10:48:21.358Z,29.00
2018-07-20T10:51:09.282Z,29.30
2018-07-20T10:53:38.743Z,29.10
2018-07-20T10:56:08.190Z,28.90
2018-07-20T10:58:37.679Z,29.20
2018-07-20T11:01:41.557Z,30.30
2018-07-20T11:04:10.945Z,30.40
2018-07-20T11:06:40.350Z,31.40
2018-07-20T11:09:11.863Z,31.90
2018-07-20T11:11:41.292Z,31.50
2018-07-20T11:14:10.696Z,32.30
2018-07-20T11:16:40.150Z,32.50
2018-07-20T11:19:11.614Z,32.20
2018-07-20T11:21:40.952Z,32.40
2018-07-20T11:24:10.371Z,32.90
2018-07-20T11:26:39.791Z,32.90
2018-07-20T11:29:13.756Z,32.30
2018-07-20T11:31:43.214Z,32.00
2018-07-20T11:34:12.604Z,31.70
2018-07-20T11:36:41.972Z,31.60
2018-07-20T11:39:13.467Z,31.40
2018-07-20T11:41:42.801Z,31.20
2018-07-20T11:44:12.341Z,31.70
2018-07-20T11:46:42.402Z,31.80
2018-07-20T11:49:19.570Z,33.00
2018-07-20T11:51:49.051Z,35.40
2018-07-20T11:54:18.418Z,35.40
2018-07-20T11:56:47.926Z,34.40
2018-07-20T11:59:20.069Z,34.60
2018-07-20T12:01:49.502Z,34.70
2018-07-20T12:04:20.514Z,34.20
2018-07-20T12:06:50.006Z,35.30
2018-07-20T12:09:38.453Z,34.60
2018-07-20T12:12:07.859Z,34.50
2018-07-20T12:14:37.401Z,35.00
2018-07-20T12:17:06.814Z,34.80
2018-07-20T12:19:45.594Z,35.10
2018-07-20T12:22:14.997Z,35.70
2018-07-20T12:24:44.395Z,36.10
2018-07-20T12:27:13.824Z,35.90
2018-07-20T12:32:18.355Z,36.00
2018-07-20T12:34:47.670Z,35.70
2018-07-20T12:37:17.066Z,35.60
2018-07-20T12:39:48.538Z,35.20
2018-07-20T12:42:17.958Z,34.80
2018-07-20T12:44:47.506Z,34.90
2018-07-20T12:47:17.282Z,35.20
2018-07-20T12:49:46.777Z,34.00
2018-07-20T12:52:16.161Z,34.10
2018-07-20T12:54:45.649Z,33.70
2018-07-20T12:57:15.018Z,34.50
2018-07-20T12:59:44.553Z,33.10
2018-07-20T13:02:13.990Z,33.60
2018-07-20T13:04:43.359Z,34.30
2018-07-20T13:07:12.761Z,34.30
2018-07-20T13:10:14.233Z,33.60
2018-07-20T13:12:57.502Z,33.40
2018-07-20T13:15:26.926Z,33.80
2018-07-20T13:17:56.393Z,33.70
2018-07-20T13:20:39.509Z,34.60
2018-07-20T13:23:08.931Z,35.30
2018-07-20T13:25:38.415Z,36.10
2018-07-20T13:28:07.807Z,36.90
2018-07-20T13:30:44.489Z,36.30
2018-07-20T13:33:13.852Z,36.10
2018-07-20T13:35:43.283Z,35.30
2018-07-20T13:38:12.709Z,35.20
2018-07-20T13:40:50.655Z,36.20
2018-07-20T13:43:20.068Z,35.50
2018-07-20T13:45:49.400Z,34.50
2018-07-20T13:48:18.849Z,34.90
2018-07-20T13:50:48.386Z,35.20
2018-07-20T13:53:17.790Z,35.50
2018-07-20T13:55:47.259Z,34.00
2018-07-20T13:58:16.938Z,33.90
2018-07-20T14:00:47.628Z,34.00
2018-07-20T14:03:16.943Z,33.70
2018-07-20T14:05:46.334Z,35.70
2018-07-20T14:08:15.754Z,37.70
2018-07-20T14:10:56.445Z,38.30
2018-07-20T14:13:25.905Z,38.60
2018-07-20T14:15:55.374Z,38.40
2018-07-20T14:18:24.746Z,38.50
2018-07-20T14:20:56.106Z,36.90
2018-07-20T14:23:25.489Z,38.10
2018-07-20T14:25:54.967Z,38.20
2018-07-20T14:28:24.280Z,38.30
2018-07-20T14:31:01.522Z,38.40
2018-07-20T14:33:30.906Z,37.40
2018-07-20T14:36:00.438Z,36.30
2018-07-20T14:38:29.873Z,35.60
2018-07-20T14:41:01.228Z,36.00
2018-07-20T14:43:30.554Z,36.40
2018-07-20T14:45:59.994Z,36.00
2018-07-20T14:48:29.421Z,36.70
2018-07-20T14:50:58.904Z,34.90
2018-07-20T14:53:28.418Z,34.50
2018-07-20T14:55:57.806Z,34.50
2018-07-20T14:58:27.203Z,33.60
2018-07-20T15:00:56.742Z,33.10
2018-07-20T15:03:26.194Z,32.90
2018-07-20T15:05:55.596Z,33.40
2018-07-20T15:08:25.018Z,33.80
2018-07-20T15:11:00.272Z,34.80
2018-07-20T15:15:59.096Z,36.30
2018-07-20T15:18:28.504Z,36.90
2018-07-20T15:21:13.089Z,37.50
2018-07-20T15:23:42.447Z,36.90
2018-07-20T15:26:11.741Z,36.80
2018-07-20T15:28:41.108Z,36.30
2018-07-20T15:31:15.146Z,35.30
2018-07-20T15:33:44.491Z,35.40
2018-07-20T15:36:13.904Z,36.60
2018-07-20T15:38:43.363Z,37.00
2018-07-20T15:41:13.874Z,36.50
2018-07-20T15:43:43.279Z,37.10
2018-07-20T15:46:12.977Z,36.50
2018-07-20T15:48:42.282Z,36.50
2018-07-20T15:51:11.744Z,36.10
2018-07-20T15:53:41.164Z,35.70
2018-07-20T15:56:10.433Z,35.50
2018-07-20T15:58:39.816Z,35.40
2018-07-20T16:01:18.485Z,35.90
2018-07-20T16:03:47.926Z,36.50
2018-07-20T16:06:17.301Z,36.90
2018-07-20T16:08:46.660Z,37.20
2018-07-20T16:11:18.138Z,37.20
2018-07-20T16:13:47.566Z,37.30
2018-07-20T16:16:16.985Z,36.70
2018-07-20T16:18:46.506Z,36.60
2018-07-20T16:21:25.022Z,36.90
2018-07-20T16:23:54.398Z,36.80
2018-07-20T16:26:23.769Z,36.40
2018-07-20T16:28:53.125Z,35.30
2018-07-20T16:31:22.514Z,35.10
2018-07-20T16:33:51.950Z,35.70
2018-07-20T16:36:21.387Z,36.00
2018-07-20T16:38:50.889Z,36.30
2018-07-20T16:41:20.258Z,36.50
2018-07-20T16:43:49.654Z,36.30
2018-07-20T16:46:19.054Z,35.60
2018-07-20T16:48:48.556Z,35.40
2018-07-20T16:51:19.978Z,35.60
2018-07-20T16:56:18.585Z,35.80
2018-07-20T16:58:47.934Z,35.50
2018-07-20T17:01:17.478Z,34.90
2018-07-20T17:03:46.828Z,34.10
2018-07-20T17:06:16.274Z,34.00
2018-07-20T17:08:45.598Z,33.60
2018-07-20T17:11:23.814Z,33.10
2018-07-20T17:13:53.154Z,32.40
2018-07-20T17:16:22.531Z,32.00
2018-07-20T17:18:51.895Z,31.50
2018-07-20T17:21:21.306Z,31.40
2018-07-20T17:23:50.686Z,31.30
2018-07-20T17:26:20.030Z,31.20
2018-07-20T17:28:49.401Z,31.10
2018-07-20T17:31:30.393Z,31.00
2018-07-20T17:33:59.786Z,30.90
2018-07-20T17:36:29.123Z,30.80
2018-07-20T17:38:58.669Z,30.60
2018-07-20T17:41:28.067Z,30.20
2018-07-20T17:43:57.482Z,30.10
2018-07-20T17:46:26.910Z,30.00
2018-07-20T17:48:57.162Z,29.80
2018-07-20T17:51:26.550Z,29.60
2018-07-20T17:53:56.022Z,29.50
2018-07-20T17:56:25.384Z,29.30
2018-07-20T18:01:23.846Z,29.10
2018-07-20T18:03:53.186Z,28.90
2018-07-20T18:06:22.537Z,28.90
2018-07-20T18:08:51.913Z,28.80
2018-07-20T18:11:21.733Z,28.70
2018-07-20T18:13:51.171Z,28.50
2018-07-20T18:16:20.691Z,28.40
2018-07-20T18:18:50.107Z,28.30
2018-07-20T18:21:19.474Z,28.10
2018-07-20T18:23:48.866Z,28.10
2018-07-20T18:26:18.241Z,28.00
2018-07-20T18:28:47.666Z,27.80
2018-07-20T18:31:21.689Z,27.80
2018-07-20T18:33:51.115Z,27.60
2018-07-20T18:36:20.417Z,27.50
2018-07-20T18:38:49.906Z,27.40
2018-07-20T18:41:20.297Z,27.30
2018-07-20T18:43:49.643Z,27.00
2018-07-20T18:46:19.058Z,26.70
2018-07-20T18:48:48.425Z,26.60
2018-07-20T18:53:54.511Z,26.50
2018-07-20T18:56:23.884Z,26.40
2018-07-20T18:58:53.209Z,26.20
2018-07-20T19:01:22.597Z,26.10
2018-07-20T19:03:52.003Z,26.00
2018-07-20T19:08:50.381Z,25.70
2018-07-20T19:11:29.095Z,25.50
2018-07-20T19:13:58.609Z,25.40
2018-07-20T19:16:27.961Z,25.30
2018-07-20T19:18:57.286Z,25.20
2018-07-20T19:21:26.665Z,25.00
2018-07-20T19:23:56.015Z,25.00
2018-07-20T19:26:25.421Z,24.90
2018-07-20T19:28:54.810Z,24.50
2018-07-20T19:31:24.277Z,24.30
2018-07-20T19:33:53.734Z,23.90
2018-07-20T19:36:23.204Z,24.00
2018-07-20T19:38:52.581Z,23.90
2018-07-20T19:41:22.041Z,23.40
2018-07-20T19:43:51.437Z,23.40
2018-07-20T19:46:20.761Z,23.30
2018-07-20T19:48:50.141Z,23.20
2018-07-20T19:51:25.273Z,23.30
2018-07-20T19:53:54.643Z,23.30
2018-07-20T19:56:24.082Z,23.00
2018-07-20T19:58:53.497Z,23.10
2018-07-20T20:01:22.889Z,23.10
2018-07-20T20:03:52.228Z,22.80
2018-07-20T20:06:21.513Z,22.80
2018-07-20T20:08:51.043Z,22.60
2018-07-20T20:11:20.167Z,22.50
2018-07-20T20:16:18.149Z,22.50
2018-07-20T20:18:47.261Z,22.50
2018-07-20T20:21:30.589Z,22.30
2018-07-20T20:23:59.805Z,22.20
2018-07-20T20:26:29.170Z,22.30
2018-07-20T20:29:09.151Z,22.10
2018-07-20T20:31:38.573Z,21.80
2018-07-20T20:34:07.941Z,22.10
2018-07-20T20:36:37.393Z,22.00
2018-07-20T20:39:11.782Z,21.90
2018-07-20T20:41:41.362Z,21.90
2018-07-20T20:44:11.001Z,21.90
2018-07-20T20:46:40.756Z,22.00
2018-07-20T20:49:13.490Z,21.80
2018-07-20T20:51:42.857Z,21.70
2018-07-20T20:54:12.150Z,21.80
2018-07-20T20:56:41.584Z,21.70
2018-07-20T21:01:42.122Z,21.70
2018-07-20T21:04:11.543Z,21.60
2018-07-20T21:09:12.074Z,21.50
2018-07-20T21:11:41.474Z,21.30
2018-07-20T21:14:10.801Z,21.50
2018-07-20T21:16:40.175Z,21.50
2018-07-20T21:19:09.590Z,21.10
2018-07-20T21:21:38.997Z,21.10
2018-07-20T21:24:08.389Z,21.10
2018-07-20T21:26:37.741Z,21.30
2018-07-20T21:29:14.705Z,21.30
2018-07-20T21:31:44.090Z,21.30
2018-07-20T21:34:13.454Z,21.10
2018-07-20T21:36:42.893Z,21.30
2018-07-20T21:39:17.233Z,21.20
2018-07-20T21:41:46.626Z,20.90
2018-07-20T21:44:16.067Z,20.90
2018-07-20T21:46:45.326Z,21.00
2018-07-20T21:49:33.261Z,20.80
2018-07-20T21:52:02.647Z,20.60
2018-07-20T21:54:32.034Z,20.50
2018-07-20T21:57:01.342Z,20.50
2018-07-20T21:59:30.781Z,20.40
2018-07-20T22:02:01.139Z,20.60
2018-07-20T22:04:30.532Z,20.60
2018-07-20T22:06:59.839Z,20.70
2018-07-20T22:09:30.221Z,20.60
2018-07-20T22:11:59.714Z,20.50
2018-07-20T22:14:29.082Z,20.70
2018-07-20T22:16:58.514Z,20.80
2018-07-20T22:19:28.989Z,20.70
2018-07-20T22:21:58.406Z,20.60
2018-07-20T22:24:27.755Z,20.60
2018-07-20T22:26:57.061Z,20.60
2018-07-20T22:29:28.346Z,20.40
2018-07-20T22:31:57.814Z,20.40
2018-07-20T22:34:27.110Z,20.30
2018-07-20T22:36:56.477Z,20.30
2018-07-20T22:39:30.293Z,20.40
2018-07-20T22:41:59.637Z,20.10
2018-07-20T22:44:29.018Z,19.90
2018-07-20T22:46:58.294Z,19.70
